createdAt,value
2022-07-26T00:02:48.756Z,1.20
2022-07-26T00:05:50.335Z,1.50
2022-07-26T00:08:52.274Z,1.70
2022-07-26T00:11:53.885Z,1.50
2022-07-26T00:14:55.315Z,1.67
2022-07-26T00:17:56.872Z,1.45
2022-07-26T00:20:58.525Z,1.40
2022-07-26T00:24:00.136Z,1.65
2022-07-26T00:27:01.559Z,1.52
2022-07-26T00:30:06.722Z,1.52
2022-07-26T00:33:08.176Z,1.33
2022-07-26T00:36:10.001Z,1.60
2022-07-26T00:39:11.738Z,1.50
2022-07-26T00:42:14.042Z,1.60
2022-07-26T00:45:16.467Z,1.45
2022-07-26T00:48:18.855Z,1.52
2022-07-26T00:51:20.922Z,1.40
2022-07-26T00:54:22.494Z,1.85
2022-07-26T00:57:24.074Z,1.50
2022-07-26T01:00:28.185Z,1.50
2022-07-26T01:03:36.471Z,1.50
2022-07-26T01:06:42.188Z,1.60
2022-07-26T01:09:44.524Z,1.67
2022-07-26T01:12:47.069Z,1.52
2022-07-26T01:15:48.895Z,1.50
2022-07-26T01:18:50.348Z,1.50
2022-07-26T01:21:51.905Z,1.40
2022-07-26T01:24:53.384Z,1.52
2022-07-26T01:27:54.897Z,1.73
2022-07-26T01:30:56.606Z,1.70
2022-07-26T01:33:58.231Z,1.60
2022-07-26T01:36:59.905Z,1.50
2022-07-26T01:40:01.693Z,1.60
2022-07-26T01:43:03.166Z,1.60
2022-07-26T01:46:07.185Z,1.63
2022-07-26T01:49:09.284Z,1.50
2022-07-26T01:52:10.863Z,1.50
2022-07-26T01:55:12.306Z,1.80
2022-07-26T01:58:13.939Z,1.60
2022-07-26T02:01:15.856Z,1.63
2022-07-26T02:04:56.005Z,1.80
2022-07-26T02:07:57.572Z,1.50
2022-07-26T02:11:03.588Z,1.70
2022-07-26T02:14:05.781Z,1.80
2022-07-26T02:17:07.556Z,1.57
2022-07-26T02:20:09.581Z,1.60
2022-07-26T02:23:12.028Z,1.73
2022-07-26T02:26:13.514Z,1.80
2022-07-26T02:29:14.949Z,1.83
2022-07-26T02:32:16.829Z,1.67
2022-07-26T02:35:18.401Z,1.60
2022-07-26T02:38:19.925Z,2.00
2022-07-26T02:41:21.397Z,1.63
2022-07-26T02:44:23.968Z,1.70
2022-07-26T02:47:25.598Z,1.70
2022-07-26T02:50:28.288Z,1.43
2022-07-26T02:53:29.721Z,1.50
2022-07-26T02:56:31.151Z,1.73
2022-07-26T02:59:32.598Z,1.60
2022-07-26T03:02:34.064Z,1.70
2022-07-26T03:05:35.504Z,1.70
2022-07-26T03:08:37.018Z,1.73
2022-07-26T03:11:38.571Z,1.73
2022-07-26T03:14:40.404Z,1.60
2022-07-26T03:17:41.883Z,1.80
2022-07-26T03:20:43.489Z,1.90
2022-07-26T03:23:44.912Z,1.93
2022-07-26T03:26:46.329Z,1.87
2022-07-26T03:29:47.800Z,2.20
2022-07-26T03:32:49.560Z,1.90
2022-07-26T03:35:50.990Z,1.80
2022-07-26T03:38:52.399Z,1.90
2022-07-26T03:41:53.809Z,2.00
2022-07-26T03:44:55.273Z,1.70
2022-07-26T03:47:56.692Z,1.83
2022-07-26T03:50:58.280Z,2.00
2022-07-26T03:54:00.428Z,2.00
2022-07-26T03:57:01.984Z,1.70
2022-07-26T04:00:03.888Z,1.77
2022-07-26T04:03:08.981Z,1.87
2022-07-26T04:06:10.854Z,1.80
2022-07-26T04:09:13.491Z,1.80
2022-07-26T04:12:14.913Z,1.73
2022-07-26T04:15:18.774Z,1.80
2022-07-26T04:18:20.453Z,1.80
2022-07-26T04:21:22.454Z,1.80
2022-07-26T04:24:25.350Z,1.80
2022-07-26T04:27:27.618Z,2.00
2022-07-26T04:30:29.554Z,1.93
2022-07-26T04:33:31.078Z,2.13
2022-07-26T04:36:32.871Z,1.97
2022-07-26T04:39:34.311Z,2.30
2022-07-26T04:42:36.575Z,1.90
2022-07-26T04:45:38.070Z,1.83
2022-07-26T04:48:39.647Z,1.77
2022-07-26T04:51:41.177Z,2.40
2022-07-26T04:54:42.662Z,1.90
2022-07-26T04:57:45.362Z,1.83
2022-07-26T05:04:10.789Z,2.00
2022-07-26T05:07:12.564Z,2.30
2022-07-26T05:10:16.020Z,2.00
2022-07-26T05:13:17.557Z,1.70
2022-07-26T05:16:31.388Z,2.10
2022-07-26T05:19:33.394Z,1.90
2022-07-26T05:22:35.984Z,1.77
2022-07-26T05:25:38.650Z,2.07
2022-07-26T05:28:40.490Z,2.10
2022-07-26T05:31:42.496Z,1.83
2022-07-26T05:34:43.953Z,1.93
2022-07-26T05:37:45.440Z,1.83
2022-07-26T05:40:50.463Z,1.70
2022-07-26T05:43:52.619Z,1.70
2022-07-26T05:46:54.074Z,2.07
2022-07-26T05:49:55.517Z,1.90
2022-07-26T05:52:56.916Z,1.80
2022-07-26T05:55:58.365Z,1.80
2022-07-26T05:58:59.815Z,1.57
2022-07-26T06:02:01.333Z,2.23
2022-07-26T06:05:02.936Z,1.97
2022-07-26T06:08:04.682Z,2.00
2022-07-26T06:11:06.356Z,1.90
2022-07-26T06:14:07.918Z,2.03
2022-07-26T06:17:09.630Z,1.77
2022-07-26T06:20:11.410Z,1.87
2022-07-26T06:23:13.396Z,1.73
2022-07-26T06:26:14.950Z,1.80
2022-07-26T06:29:16.371Z,1.97
2022-07-26T06:32:17.980Z,1.73
2022-07-26T06:35:19.966Z,1.80
2022-07-26T06:38:21.715Z,1.60
2022-07-26T06:41:23.251Z,1.77
2022-07-26T06:44:24.694Z,2.43
2022-07-26T06:47:27.134Z,1.63
2022-07-26T06:50:28.764Z,1.60
2022-07-26T06:53:30.367Z,1.93
2022-07-26T06:56:32.448Z,1.70
2022-07-26T06:59:34.113Z,1.67
2022-07-26T07:02:36.141Z,1.60
2022-07-26T07:05:37.544Z,1.80
2022-07-26T07:08:39.513Z,1.87
2022-07-26T07:11:44.375Z,1.50
2022-07-26T07:14:46.538Z,1.90
2022-07-26T07:17:48.596Z,1.80
2022-07-26T07:20:50.106Z,1.70
2022-07-26T07:23:51.561Z,1.40
2022-07-26T07:26:53.520Z,1.33
2022-07-26T07:29:56.721Z,1.30
2022-07-26T07:32:59.119Z,1.40
2022-07-26T07:36:00.559Z,1.40
2022-07-26T07:39:06.356Z,1.73
2022-07-26T07:42:09.202Z,1.20
2022-07-26T07:45:11.586Z,1.40
2022-07-26T07:48:13.022Z,1.73
2022-07-26T07:51:14.968Z,1.20
2022-07-26T07:54:18.311Z,1.30
2022-07-26T07:57:20.228Z,1.40
2022-07-26T08:00:27.046Z,1.77
2022-07-26T08:03:38.616Z,1.50
2022-07-26T08:06:41.748Z,1.70
2022-07-26T08:09:51.901Z,1.50
2022-07-26T08:12:53.325Z,1.20
2022-07-26T08:15:55.826Z,0.87
2022-07-26T08:18:58.592Z,1.30
2022-07-26T08:22:00.247Z,1.60
2022-07-26T08:25:02.877Z,1.93
2022-07-26T08:28:04.518Z,1.10
2022-07-26T08:31:06.316Z,1.03
2022-07-26T08:34:07.790Z,1.27
2022-07-26T08:37:17.834Z,1.10
2022-07-26T08:40:19.708Z,1.00
2022-07-26T08:43:21.134Z,1.30
2022-07-26T08:46:28.226Z,1.07
2022-07-26T08:49:29.909Z,1.30
2022-07-26T08:52:31.439Z,1.50
2022-07-26T08:55:50.585Z,1.00
2022-07-26T08:58:54.442Z,1.10
2022-07-26T09:02:01.850Z,1.13
2022-07-26T09:05:04.771Z,1.20
2022-07-26T09:08:27.766Z,1.07
2022-07-26T09:11:33.504Z,1.10
2022-07-26T09:14:39.384Z,1.10
2022-07-26T09:17:44.039Z,1.00
2022-07-26T09:20:47.176Z,1.07
2022-07-26T09:23:49.597Z,1.10
2022-07-26T09:26:59.814Z,1.20
2022-07-26T09:30:07.094Z,1.10
2022-07-26T09:33:08.525Z,1.03
2022-07-26T09:36:10.122Z,1.27
2022-07-26T09:39:11.841Z,1.10
2022-07-26T09:42:29.876Z,1.00
2022-07-26T09:45:34.122Z,1.30
2022-07-26T09:49:09.880Z,1.10
2022-07-26T09:51:59.307Z,1.03
2022-07-26T09:55:05.623Z,1.20
2022-07-26T09:58:07.459Z,1.13
2022-07-26T10:01:08.864Z,1.10
2022-07-26T10:04:11.453Z,0.93
2022-07-26T10:07:13.356Z,1.00
2022-07-26T10:10:21.013Z,1.13
2022-07-26T10:13:22.808Z,1.07
2022-07-26T10:16:30.456Z,1.00
2022-07-26T10:19:45.547Z,1.00
2022-07-26T10:22:50.229Z,1.30
2022-07-26T10:25:51.759Z,0.90
2022-07-26T10:28:53.260Z,1.33
2022-07-26T10:32:00.818Z,1.20
2022-07-26T10:35:29.722Z,1.10
2022-07-26T10:38:31.186Z,1.00
2022-07-26T10:41:40.185Z,1.10
2022-07-26T10:44:44.849Z,1.00
2022-07-26T10:48:12.236Z,0.90
2022-07-26T10:51:25.542Z,1.20
2022-07-26T10:54:26.966Z,0.93
2022-07-26T10:57:37.749Z,1.10
2022-07-26T11:00:39.303Z,0.80
2022-07-26T11:03:43.200Z,1.27
2022-07-26T11:06:45.580Z,0.97
2022-07-26T11:09:46.999Z,0.90
2022-07-26T11:12:48.417Z,1.17
2022-07-26T11:15:59.292Z,1.00
2022-07-26T11:19:21.766Z,1.00
2022-07-26T11:22:31.755Z,1.00
2022-07-26T11:25:33.233Z,0.90
2022-07-26T11:28:53.453Z,1.00
2022-07-26T11:32:00.108Z,0.90
2022-07-26T11:35:06.706Z,1.00
2022-07-26T11:38:12.197Z,1.00
2022-07-26T11:41:18.080Z,0.90
2022-07-26T11:44:21.674Z,0.93
2022-07-26T11:47:25.231Z,0.90
2022-07-26T11:50:27.928Z,1.10
2022-07-26T11:53:29.366Z,0.80
2022-07-26T11:56:32.359Z,1.00
2022-07-26T11:59:36.358Z,1.00
2022-07-26T12:02:37.983Z,1.38
2022-07-26T12:05:41.905Z,0.90
2022-07-26T12:08:56.334Z,1.02
2022-07-26T12:11:58.097Z,1.00
2022-07-26T12:15:01.971Z,1.00
2022-07-26T12:18:03.445Z,1.00
2022-07-26T12:21:09.303Z,0.90
2022-07-26T12:24:13.487Z,0.95
2022-07-26T12:27:19.561Z,0.90
2022-07-26T12:30:21.111Z,1.15
2022-07-26T12:33:22.631Z,1.00
2022-07-26T12:36:27.713Z,1.10
2022-07-26T12:39:30.080Z,0.90
2022-07-26T12:42:36.749Z,1.00
2022-07-26T12:45:38.470Z,0.80
2022-07-26T12:48:41.634Z,1.13
2022-07-26T12:51:43.158Z,1.15
2022-07-26T12:54:46.755Z,1.00
2022-07-26T12:57:49.443Z,1.17
2022-07-26T13:00:57.241Z,1.17
2022-07-26T13:04:00.763Z,0.98
2022-07-26T13:07:02.933Z,1.25
2022-07-26T13:10:31.721Z,1.10
2022-07-26T13:13:30.892Z,1.45
2022-07-26T13:16:32.340Z,1.00
2022-07-26T13:19:35.205Z,1.10
2022-07-26T13:22:36.685Z,1.10
2022-07-26T13:25:40.389Z,1.13
2022-07-26T13:28:42.146Z,1.20
2022-07-26T13:31:43.927Z,1.15
2022-07-26T13:34:45.530Z,1.00
2022-07-26T13:37:46.929Z,1.00
2022-07-26T13:40:50.329Z,1.10
2022-07-26T13:43:54.012Z,0.95
2022-07-26T13:46:55.413Z,1.20
2022-07-26T13:49:56.817Z,1.33
2022-07-26T13:52:58.331Z,1.00
2022-07-26T13:55:59.766Z,1.15
2022-07-26T13:59:01.185Z,1.13
2022-07-26T14:02:04.570Z,1.10
2022-07-26T14:05:06.479Z,1.15
2022-07-26T14:08:07.915Z,1.20
2022-07-26T14:11:09.417Z,1.17
2022-07-26T14:14:13.174Z,1.00
2022-07-26T14:17:14.890Z,1.35
2022-07-26T14:20:17.143Z,1.10
2022-07-26T14:23:18.785Z,1.63
2022-07-26T14:26:20.231Z,1.20
2022-07-26T14:29:21.641Z,1.48
2022-07-26T14:32:23.249Z,1.10
2022-07-26T14:35:25.571Z,1.27
2022-07-26T14:38:30.116Z,1.17
2022-07-26T14:41:31.805Z,1.00
2022-07-26T14:44:34.179Z,1.17
2022-07-26T14:47:46.134Z,1.20
2022-07-26T14:51:08.752Z,1.13
2022-07-26T14:54:09.885Z,1.30
2022-07-26T14:57:11.538Z,1.20
2022-07-26T15:00:15.967Z,1.33
2022-07-26T15:03:17.499Z,1.30
2022-07-26T15:06:18.923Z,1.27
2022-07-26T15:09:20.366Z,1.40
2022-07-26T15:12:21.837Z,1.20
2022-07-26T15:15:23.621Z,1.27
2022-07-26T15:18:25.230Z,1.30
2022-07-26T15:21:26.701Z,1.00
2022-07-26T15:24:28.734Z,1.17
2022-07-26T15:27:30.321Z,1.20
2022-07-26T15:30:32.944Z,1.20
2022-07-26T15:33:35.269Z,1.30
2022-07-26T15:36:36.845Z,1.20
2022-07-26T15:39:38.309Z,1.10
2022-07-26T15:42:42.496Z,1.23
2022-07-26T15:45:45.623Z,1.30
2022-07-26T15:48:47.304Z,1.35
2022-07-26T15:51:49.828Z,1.30
2022-07-26T15:54:52.751Z,1.10
2022-07-26T15:57:54.186Z,1.20
2022-07-26T16:00:56.529Z,1.38
2022-07-26T16:03:57.962Z,1.20
2022-07-26T16:06:59.387Z,1.20
2022-07-26T16:10:01.572Z,1.50
2022-07-26T16:13:03.693Z,1.33
2022-07-26T16:16:05.741Z,1.45
2022-07-26T16:19:07.388Z,1.10
2022-07-26T16:22:08.970Z,1.30
2022-07-26T16:25:13.508Z,1.30
2022-07-26T16:28:15.011Z,1.10
2022-07-26T16:31:16.797Z,1.10
2022-07-26T16:34:18.385Z,1.00
2022-07-26T16:37:19.844Z,0.98
2022-07-26T16:40:21.503Z,1.38
2022-07-26T16:43:23.106Z,1.15
2022-07-26T16:46:24.838Z,1.15
2022-07-26T16:49:26.612Z,1.33
2022-07-26T16:52:28.263Z,1.20
2022-07-26T16:55:30.340Z,1.20
2022-07-26T16:58:32.954Z,1.25
2022-07-26T17:01:34.464Z,1.20
2022-07-26T17:04:37.297Z,1.30
2022-07-26T17:07:38.756Z,1.17
2022-07-26T17:10:40.190Z,1.10
2022-07-26T17:13:41.692Z,1.25
2022-07-26T17:16:43.871Z,1.20
2022-07-26T17:19:45.435Z,1.23
2022-07-26T17:22:46.902Z,1.08
2022-07-26T17:25:48.309Z,1.30
2022-07-26T17:28:49.813Z,1.40
2022-07-26T17:31:51.237Z,1.10
2022-07-26T17:34:52.710Z,1.25
2022-07-26T17:37:55.972Z,1.20
2022-07-26T17:40:57.901Z,4.03
2022-07-26T17:44:02.762Z,1.10
2022-07-26T17:47:05.431Z,1.10
2022-07-26T17:50:36.511Z,1.15
2022-07-26T17:53:38.693Z,1.27
2022-07-26T17:56:40.096Z,1.20
2022-07-26T17:59:41.505Z,1.10
2022-07-26T18:02:43.086Z,1.23
2022-07-26T18:05:44.666Z,1.20
2022-07-26T18:08:46.113Z,1.38
2022-07-26T18:11:47.541Z,1.02
2022-07-26T18:14:48.962Z,1.10
2022-07-26T18:17:50.370Z,1.40
2022-07-26T18:20:52.505Z,1.00
2022-07-26T18:24:15.430Z,1.10
2022-07-26T18:27:16.001Z,1.10
2022-07-26T18:30:17.496Z,1.10
2022-07-26T18:33:18.921Z,1.00
2022-07-26T18:36:20.322Z,1.00
2022-07-26T18:39:21.722Z,1.10
2022-07-26T18:42:23.173Z,1.00
2022-07-26T18:45:24.866Z,0.90
2022-07-26T18:48:26.293Z,0.90
2022-07-26T18:51:29.670Z,1.33
2022-07-26T18:54:33.188Z,1.40
2022-07-26T18:57:36.036Z,1.50
2022-07-26T19:00:37.595Z,1.20
2022-07-26T19:03:39.049Z,1.30
2022-07-26T19:06:40.516Z,1.45
2022-07-26T19:09:42.111Z,1.50
2022-07-26T19:12:46.330Z,1.33
2022-07-26T19:15:49.982Z,1.40
2022-07-26T19:18:56.880Z,1.08
2022-07-26T19:21:58.869Z,1.40
2022-07-26T19:25:00.729Z,1.20
2022-07-26T19:28:02.198Z,1.25
2022-07-26T19:31:03.905Z,1.42
2022-07-26T19:34:05.562Z,1.45
2022-07-26T19:37:07.274Z,1.63
2022-07-26T19:40:09.271Z,1.45
2022-07-26T19:43:11.003Z,1.40
2022-07-26T19:46:12.518Z,1.30
2022-07-26T19:49:16.076Z,1.40
2022-07-26T19:52:17.829Z,1.63
2022-07-26T19:55:19.390Z,1.58
2022-07-26T19:58:20.829Z,1.20
2022-07-26T20:01:29.087Z,1.27
2022-07-26T20:04:30.774Z,1.40
2022-07-26T20:07:32.322Z,1.33
2022-07-26T20:10:33.813Z,1.35
2022-07-26T20:13:35.401Z,1.55
2022-07-26T20:16:37.024Z,1.60
2022-07-26T20:19:38.661Z,1.40
2022-07-26T20:22:40.499Z,1.30
2022-07-26T20:25:42.112Z,1.60
2022-07-26T20:28:43.570Z,1.40
2022-07-26T20:31:45.061Z,1.60
2022-07-26T20:34:46.600Z,1.40
2022-07-26T20:37:48.000Z,1.60
2022-07-26T20:40:49.628Z,1.30
2022-07-26T20:43:51.281Z,1.90
2022-07-26T20:46:52.741Z,1.53
2022-07-26T20:49:55.058Z,1.30
2022-07-26T20:52:59.837Z,1.70
2022-07-26T20:56:01.443Z,2.07
2022-07-26T20:59:03.035Z,1.93
2022-07-26T21:02:04.751Z,1.90
2022-07-26T21:05:07.004Z,1.67
2022-07-26T21:08:08.466Z,1.90
2022-07-26T21:11:09.987Z,2.30
2022-07-26T21:14:11.642Z,2.03
2022-07-26T21:17:13.193Z,2.17
2022-07-26T21:20:14.716Z,2.20
2022-07-26T21:23:19.038Z,1.87
2022-07-26T21:26:21.650Z,2.00
2022-07-26T21:29:23.168Z,2.10
2022-07-26T21:32:29.613Z,2.03
2022-07-26T21:35:32.881Z,2.10
2022-07-26T21:38:34.376Z,2.10
2022-07-26T21:41:36.213Z,2.27
2022-07-26T21:44:37.678Z,2.07
2022-07-26T21:47:39.196Z,2.00
2022-07-26T21:50:40.810Z,2.03
2022-07-26T21:53:42.325Z,2.10
2022-07-26T21:56:43.797Z,2.17
2022-07-26T21:59:45.254Z,1.83
2022-07-26T22:02:46.830Z,2.10
2022-07-26T22:05:48.742Z,2.10
2022-07-26T22:08:50.319Z,2.00
2022-07-26T22:11:51.734Z,2.33
2022-07-26T22:14:53.206Z,1.93
2022-07-26T22:17:55.044Z,1.80
2022-07-26T22:20:56.726Z,2.10
2022-07-26T22:23:58.188Z,2.40
2022-07-26T22:26:59.646Z,1.70
2022-07-26T22:30:02.144Z,1.87
2022-07-26T22:33:07.832Z,1.93
2022-07-26T22:36:09.724Z,2.07
2022-07-26T22:39:11.538Z,2.10
2022-07-26T22:42:15.704Z,2.27
2022-07-26T22:45:17.729Z,2.07
2022-07-26T22:48:19.239Z,1.90
2022-07-26T22:51:20.726Z,1.80
2022-07-26T22:54:22.193Z,1.80
2022-07-26T22:57:23.610Z,2.10
2022-07-26T23:00:25.295Z,2.00
2022-07-26T23:03:26.800Z,2.03
2022-07-26T23:06:31.810Z,2.20
2022-07-26T23:09:34.032Z,2.13
2022-07-26T23:12:35.811Z,1.90
2022-07-26T23:15:37.231Z,2.43
2022-07-26T23:18:38.659Z,1.80
2022-07-26T23:21:40.208Z,1.83
2022-07-26T23:24:43.649Z,1.80
2022-07-26T23:27:45.610Z,1.93
2022-07-26T23:30:47.052Z,1.83
2022-07-26T23:33:51.301Z,2.10
2022-07-26T23:36:55.614Z,1.90
2022-07-26T23:39:57.029Z,1.97
2022-07-26T23:42:58.574Z,1.80
2022-07-26T23:46:00.136Z,1.90
2022-07-26T23:49:03.399Z,2.10
2022-07-26T23:52:05.176Z,1.73
2022-07-26T23:55:07.233Z,2.17
2022-07-26T23:58:12.046Z,1.83
